sensor_id;sensor_type;location;lat;lon;timestamp;pressure;altitude;pressure_sealevel;temperature;humidity
21504;BME280;10913;51.992;9.228;2023-02-13T00:02:21;102522.00;;;7.87;100.00
21504;BME280;10913;51.992;9.228;2023-02-13T00:04:46;102523.81;;;7.88;100.00
21504;BME280;10913;51.992;9.228;2023-02-13T00:07:12;102524.63;;;7.87;100.00
21504;BME280;10913;51.992;9.228;2023-02-13T00:09:38;102524.72;;;7.89;100.00
21504;BME280;10913;51.992;9.228;2023-02-13T00:12:05;102529.06;;;7.88;100.00
21504;BME280;10913;51.992;9.228;2023-02-13T00:14:34;102529.06;;;7.88;100.00
21504;BME280;10913;51.992;9.228;2023-02-13T00:16:59;102522.00;;;7.87;100.00
21504;BME280;10913;51.992;9.228;2023-02-13T00:19:25;102529.06;;;7.88;100.00
21504;BME280;10913;51.992;9.228;2023-02-13T00:21:50;102525.47;;;7.86;100.00
21504;BME280;10913;51.992;9.228;2023-02-13T00:24:15;102527.16;;;7.84;100.00
21504;BME280;10913;51.992;9.228;2023-02-13T00:26:41;102528.88;;;7.84;100.00
21504;BME280;10913;51.992;9.228;2023-02-13T00:29:06;102528.81;;;7.82;100.00
21504;BME280;10913;51.992;9.228;2023-02-13T00:31:32;102523.53;;;7.82;100.00
21504;BME280;10913;51.992;9.228;2023-02-13T00:33:57;102527.00;;;7.81;100.00
21504;BME280;10913;51.992;9.228;2023-02-13T00:36:22;102521.75;;;7.81;100.00
21504;BME280;10913;51.992;9.228;2023-02-13T00:38:48;102526.13;;;7.81;100.00
21504;BME280;10913;51.992;9.228;2023-02-13T00:41:15;102521.75;;;7.81;100.00
21504;BME280;10913;51.992;9.228;2023-02-13T00:43:42;102522.66;;;7.82;100.00
21504;BME280;10913;51.992;9.228;2023-02-13T00:46:07;102527.00;;;7.81;100.00
21504;BME280;10913;51.992;9.228;2023-02-13T00:48:33;102525.13;;;7.77;100.00
21504;BME280;10913;51.992;9.228;2023-02-13T00:50:59;102518.91;;;7.75;100.00
21504;BME280;10913;51.992;9.228;2023-02-13T00:53:25;102519.72;;;7.74;100.00
21504;BME280;10913;51.992;9.228;2023-02-13T00:55:51;102512.66;;;7.73;100.00
21504;BME280;10913;51.992;9.228;2023-02-13T00:58:18;102512.66;;;7.73;100.00
21504;BME280;10913;51.992;9.228;2023-02-13T01:00:44;102516.13;;;7.72;100.00
21504;BME280;10913;51.992;9.228;2023-02-13T01:03:11;102515.25;;;7.72;100.00
21504;BME280;10913;51.992;9.228;2023-02-13T01:05:37;102510.88;;;7.72;100.00
21504;BME280;10913;51.992;9.228;2023-02-13T01:08:02;102510.03;;;7.73;100.00
21504;BME280;10913;51.992;9.228;2023-02-13T01:10:28;102515.31;;;7.73;100.00
21504;BME280;10913;51.992;9.228;2023-02-13T01:12:53;102511.84;;;7.74;100.00
21504;BME280;10913;51.992;9.228;2023-02-13T01:15:19;102515.38;;;7.75;100.00
21504;BME280;10913;51.992;9.228;2023-02-13T01:17:44;102512.81;;;7.76;100.00
21504;BME280;10913;51.992;9.228;2023-02-13T01:20:11;102514.59;;;7.77;100.00
21504;BME280;10913;51.992;9.228;2023-02-13T01:22:37;102523.31;;;7.76;100.00
21504;BME280;10913;51.992;9.228;2023-02-13T01:25:04;102521.53;;;7.75;100.00
21504;BME280;10913;51.992;9.228;2023-02-13T01:27:29;102514.47;;;7.74;100.00
21504;BME280;10913;51.992;9.228;2023-02-13T01:29:56;102520.56;;;7.73;100.00
21504;BME280;10913;51.992;9.228;2023-02-13T01:32:21;102516.19;;;7.74;100.00
21504;BME280;10913;51.992;9.228;2023-02-13T01:34:46;102517.09;;;7.74;100.00
21504;BME280;10913;51.992;9.228;2023-02-13T01:37:12;102507.41;;;7.73;100.00
21504;BME280;10913;51.992;9.228;2023-02-13T01:39:38;102503.94;;;7.74;100.00
21504;BME280;10913;51.992;9.228;2023-02-13T01:42:03;102511.00;;;7.75;100.00
21504;BME280;10913;51.992;9.228;2023-02-13T01:44:49;102504.06;;;7.77;100.00
21504;BME280;10913;51.992;9.228;2023-02-13T01:50:12;102505.75;;;7.75;100.00
21504;BME280;10913;51.992;9.228;2023-02-13T01:52:45;102498.69;;;7.74;100.00
21504;BME280;10913;51.992;9.228;2023-02-13T01:55:12;102499.53;;;7.73;100.00
21504;BME280;10913;51.992;9.228;2023-02-13T01:57:39;102497.72;;;7.72;100.00
21504;BME280;10913;51.992;9.228;2023-02-13T02:00:10;102487.13;;;7.71;100.00
21504;BME280;10913;51.992;9.228;2023-02-13T02:02:41;102497.66;;;7.71;100.00
21504;BME280;10913;51.992;9.228;2023-02-13T02:05:08;102488.88;;;7.70;100.00
21504;BME280;10913;51.992;9.228;2023-02-13T02:07:35;102491.50;;;7.70;100.00
21504;BME280;10913;51.992;9.228;2023-02-13T02:10:06;102484.44;;;7.69;100.00
21504;BME280;10913;51.992;9.228;2023-02-13T02:15:05;102487.06;;;7.69;100.00
21504;BME280;10913;51.992;9.228;2023-02-13T02:17:31;102491.50;;;7.70;100.00
21504;BME280;10913;51.992;9.228;2023-02-13T02:32:16;102480.72;;;7.64;100.00
21504;BME280;10913;51.992;9.228;2023-02-13T02:46:35;102468.41;;;7.63;100.00
21504;BME280;10913;51.992;9.228;2023-02-13T02:49:05;102466.59;;;7.62;100.00
21504;BME280;10913;51.992;9.228;2023-02-13T02:52:14;102456.97;;;7.63;100.00
21504;BME280;10913;51.992;9.228;2023-02-13T02:54:54;102460.44;;;7.61;100.00
21504;BME280;10913;51.992;9.228;2023-02-13T02:57:32;102459.59;;;7.63;100.00
21504;BME280;10913;51.992;9.228;2023-02-13T03:00:18;102457.81;;;7.61;100.00
21504;BME280;10913;51.992;9.228;2023-02-13T03:03:19;102462.22;;;7.63;100.00
21504;BME280;10913;51.992;9.228;2023-02-13T03:06:12;102452.47;;;7.60;100.00
21504;BME280;10913;51.992;9.228;2023-02-13T03:08:42;102450.81;;;7.62;100.00
21504;BME280;10913;51.992;9.228;2023-02-13T03:11:27;102450.81;;;7.62;100.00
21504;BME280;10913;51.992;9.228;2023-02-13T03:14:31;102456.84;;;7.59;100.00
21504;BME280;10913;51.992;9.228;2023-02-13T03:16:57;102448.03;;;7.57;100.00
21504;BME280;10913;51.992;9.228;2023-02-13T03:25:17;102449.75;;;7.57;100.00
21504;BME280;10913;51.992;9.228;2023-02-13T03:39:14;102451.22;;;7.50;100.00
21504;BME280;10913;51.992;9.228;2023-02-13T03:41:49;102446.81;;;7.49;100.00
21504;BME280;10913;51.992;9.228;2023-02-13T03:46:51;102459.06;;;7.49;100.00
21504;BME280;10913;51.992;9.228;2023-02-13T03:49:29;102453.81;;;7.49;100.00
21504;BME280;10913;51.992;9.228;2023-02-13T03:52:23;102451.09;;;7.47;100.00
21504;BME280;10913;51.992;9.228;2023-02-13T03:57:42;102458.94;;;7.46;100.00
21504;BME280;10913;51.992;9.228;2023-02-13T04:00:32;102464.19;;;7.46;100.00
21504;BME280;10913;51.992;9.228;2023-02-13T04:03:32;102458.94;;;7.46;100.00
21504;BME280;10913;51.992;9.228;2023-02-13T04:08:50;102463.28;;;7.45;100.00
21504;BME280;10913;51.992;9.228;2023-02-13T04:11:30;102450.97;;;7.44;100.00
21504;BME280;10913;51.992;9.228;2023-02-13T04:14:07;102457.13;;;7.45;100.00
21504;BME280;10913;51.992;9.228;2023-02-13T04:16:37;102451.88;;;7.45;100.00
21504;BME280;10913;51.992;9.228;2023-02-13T04:19:04;102449.25;;;7.45;100.00
21504;BME280;10913;51.992;9.228;2023-02-13T04:21:36;102450.22;;;7.47;100.00
21504;BME280;10913;51.992;9.228;2023-02-13T04:24:02;102452.00;;;7.48;100.00
21504;BME280;10913;51.992;9.228;2023-02-13T04:26:41;102456.44;;;7.49;100.00
21504;BME280;10913;51.992;9.228;2023-02-13T04:29:08;102454.69;;;7.49;100.00
21504;BME280;10913;51.992;9.228;2023-02-13T04:31:34;102458.16;;;7.48;100.00
21504;BME280;10913;51.992;9.228;2023-02-13T04:33:59;102458.16;;;7.48;100.00
21504;BME280;10913;51.992;9.228;2023-02-13T04:36:25;102461.63;;;7.47;100.00
21504;BME280;10913;51.992;9.228;2023-02-13T04:38:50;102464.31;;;7.49;100.00
21504;BME280;10913;51.992;9.228;2023-02-13T04:41:16;102455.53;;;7.48;100.00
21504;BME280;10913;51.992;9.228;2023-02-13T04:43:41;102456.44;;;7.49;100.00
21504;BME280;10913;51.992;9.228;2023-02-13T04:46:07;102455.59;;;7.50;100.00
21504;BME280;10913;51.992;9.228;2023-02-13T04:48:32;102457.41;;;7.51;100.00
21504;BME280;10913;51.992;9.228;2023-02-13T04:50:57;102458.22;;;7.50;100.00
21504;BME280;10913;51.992;9.228;2023-02-13T04:53:23;102453.81;;;7.49;100.00
21504;BME280;10913;51.992;9.228;2023-02-13T04:55:48;102448.53;;;7.49;100.00
21504;BME280;10913;51.992;9.228;2023-02-13T04:58:14;102454.69;;;7.49;100.00
21504;BME280;10913;51.992;9.228;2023-02-13T05:00:39;102451.03;;;7.46;100.00
21504;BME280;10913;51.992;9.228;2023-02-13T05:03:12;102448.28;;;7.43;100.00
21504;BME280;10913;51.992;9.228;2023-02-13T05:05:38;102447.31;;;7.41;100.00
21504;BME280;10913;51.992;9.228;2023-02-13T05:08:05;102444.53;;;7.36;100.00
21504;BME280;10913;51.992;9.228;2023-02-13T05:10:30;102446.25;;;7.36;100.00
21504;BME280;10913;51.992;9.228;2023-02-13T05:12:56;102443.69;;;7.37;100.00
21504;BME280;10913;51.992;9.228;2023-02-13T05:15:21;102450.69;;;7.37;100.00
21504;BME280;10913;51.992;9.228;2023-02-13T05:17:48;102448.06;;;7.37;100.00
21504;BME280;10913;51.992;9.228;2023-02-13T05:20:14;102447.94;;;7.34;100.00
21504;BME280;10913;51.992;9.228;2023-02-13T05:22:47;102449.66;;;7.33;100.00
21504;BME280;10913;51.992;9.228;2023-02-13T05:25:32;102452.22;;;7.32;100.00
21504;BME280;10913;51.992;9.228;2023-02-13T05:27:57;102451.38;;;7.33;100.00
21504;BME280;10913;51.992;9.228;2023-02-13T05:30:23;102444.19;;;7.29;100.00
21504;BME280;10913;51.992;9.228;2023-02-13T05:32:49;102439.78;;;7.28;100.00
21504;BME280;10913;51.992;9.228;2023-02-13T05:35:19;102445.88;;;7.26;100.00
21504;BME280;10913;51.992;9.228;2023-02-13T05:37:44;102452.78;;;7.24;100.00
21504;BME280;10913;51.992;9.228;2023-02-13T05:40:11;102452.91;;;7.28;100.00
21504;BME280;10913;51.992;9.228;2023-02-13T05:42:37;102454.72;;;7.29;100.00
21504;BME280;10913;51.992;9.228;2023-02-13T05:45:03;102455.69;;;7.31;100.00
21504;BME280;10913;51.992;9.228;2023-02-13T05:47:29;102460.09;;;7.32;100.00
21504;BME280;10913;51.992;9.228;2023-02-13T05:49:54;102460.19;;;7.33;100.00
21504;BME280;10913;51.992;9.228;2023-02-13T05:52:19;102458.44;;;7.34;100.00
21504;BME280;10913;51.992;9.228;2023-02-13T05:54:45;102464.53;;;7.33;100.00
21504;BME280;10913;51.992;9.228;2023-02-13T05:57:10;102467.03;;;7.30;100.00
21504;BME280;10913;51.992;9.228;2023-02-13T05:59:35;102465.88;;;7.23;100.00
21504;BME280;10913;51.992;9.228;2023-02-13T06:02:01;102457.91;;;7.21;100.00
21504;BME280;10913;51.992;9.228;2023-02-13T06:04:26;102470.09;;;7.19;100.00
21504;BME280;10913;51.992;9.228;2023-02-13T06:06:51;102471.97;;;7.22;100.00
21504;BME280;10913;51.992;9.228;2023-02-13T06:09:16;102467.47;;;7.19;100.00
21504;BME280;10913;51.992;9.228;2023-02-13T06:11:42;102481.56;;;7.21;100.00
21504;BME280;10913;51.992;9.228;2023-02-13T06:14:07;102486.00;;;7.22;100.00
21504;BME280;10913;51.992;9.228;2023-02-13T06:16:33;102477.06;;;7.17;100.00
21504;BME280;10913;51.992;9.228;2023-02-13T06:18:58;102476.16;;;7.17;100.00
21504;BME280;10913;51.992;9.228;2023-02-13T06:21:24;102485.63;;;7.13;100.00
21504;BME280;10913;51.992;9.228;2023-02-13T06:23:50;102483.69;;;7.09;100.00
21504;BME280;10913;51.992;9.228;2023-02-13T06:26:15;102488.97;;;7.09;100.00
21504;BME280;10913;51.992;9.228;2023-02-13T06:28:40;102483.56;;;7.06;100.00
21504;BME280;10913;51.992;9.228;2023-02-13T06:31:06;102487.03;;;7.05;100.00
21504;BME280;10913;51.992;9.228;2023-02-13T06:33:31;102487.91;;;7.06;100.00
21504;BME280;10913;51.992;9.228;2023-02-13T06:35:56;102481.78;;;7.05;100.00
21504;BME280;10913;51.992;9.228;2023-02-13T06:38:22;102485.38;;;7.07;100.00
21504;BME280;10913;51.992;9.228;2023-02-13T06:40:48;102499.34;;;7.06;100.00
21504;BME280;10913;51.992;9.228;2023-02-13T06:43:14;102494.06;;;7.06;100.00
21504;BME280;10913;51.992;9.228;2023-02-13T06:45:40;102508.19;;;7.08;100.00
21504;BME280;10913;51.992;9.228;2023-02-13T06:48:06;102496.00;;;7.10;100.00
21504;BME280;10913;51.992;9.228;2023-02-13T06:50:32;102503.06;;;7.11;100.00
21504;BME280;10913;51.992;9.228;2023-02-13T06:52:58;102503.84;;;7.09;100.00
21504;BME280;10913;51.992;9.228;2023-02-13T06:55:24;102514.34;;;7.09;100.00
21504;BME280;10913;51.992;9.228;2023-02-13T06:57:50;102506.38;;;7.07;100.00
21504;BME280;10913;51.992;9.228;2023-02-13T07:00:16;102513.44;;;7.08;100.00
21504;BME280;10913;51.992;9.228;2023-02-13T07:02:43;102509.84;;;7.06;100.00
21504;BME280;10913;51.992;9.228;2023-02-13T07:05:09;102520.44;;;7.08;100.00
21504;BME280;10913;51.992;9.228;2023-02-13T07:07:36;102514.84;;;7.00;100.00
21504;BME280;10913;51.992;9.228;2023-02-13T07:10:02;102524.06;;;6.90;100.00
21504;BME280;10913;51.992;9.228;2023-02-13T07:12:27;102529.03;;;6.84;100.00
21504;BME280;10913;51.992;9.228;2023-02-13T07:14:53;102521.84;;;6.80;100.00
21504;BME280;10913;51.992;9.228;2023-02-13T07:17:18;102522.63;;;6.78;100.00
21504;BME280;10913;51.992;9.228;2023-02-13T07:19:44;102525.25;;;6.78;100.00
21504;BME280;10913;51.992;9.228;2023-02-13T07:22:09;102522.50;;;6.75;100.00
21504;BME280;10913;51.992;9.228;2023-02-13T07:24:34;102533.63;;;6.69;100.00
21504;BME280;10913;51.992;9.228;2023-02-13T07:27:03;102527.47;;;6.69;100.00
21504;BME280;10913;51.992;9.228;2023-02-13T07:29:28;102520.25;;;6.65;100.00
21504;BME280;10913;51.992;9.228;2023-02-13T07:31:54;102527.25;;;6.64;100.00
21504;BME280;10913;51.992;9.228;2023-02-13T07:34:19;102527.19;;;6.63;100.00
21504;BME280;10913;51.992;9.228;2023-02-13T07:36:44;102530.63;;;6.62;100.00
21504;BME280;10913;51.992;9.228;2023-02-13T07:39:09;102533.97;;;6.57;100.00
21504;BME280;10913;51.992;9.228;2023-02-13T07:41:35;102530.53;;;6.59;100.00
21504;BME280;10913;51.992;9.228;2023-02-13T07:44:00;102531.13;;;6.53;100.00
21504;BME280;10913;51.992;9.228;2023-02-13T07:46:25;102526.72;;;6.52;100.00
21504;BME280;10913;51.992;9.228;2023-02-13T07:48:51;102527.75;;;6.55;100.00
21504;BME280;10913;51.992;9.228;2023-02-13T07:51:17;102529.63;;;6.58;100.00
21504;BME280;10913;51.992;9.228;2023-02-13T07:53:42;102528.72;;;6.57;100.00
21504;BME280;10913;51.992;9.228;2023-02-13T07:56:08;102523.47;;;6.57;100.00
21504;BME280;10913;51.992;9.228;2023-02-13T07:58:35;102525.28;;;6.59;100.00
21504;BME280;10913;51.992;9.228;2023-02-13T08:01:14;102522.75;;;6.62;100.00
21504;BME280;10913;51.992;9.228;2023-02-13T08:03:40;102529.88;;;6.64;100.00
21504;BME280;10913;51.992;9.228;2023-02-13T08:06:06;102530.78;;;6.65;100.00
21504;BME280;10913;51.992;9.228;2023-02-13T08:08:32;102544.88;;;6.67;100.00
21504;BME280;10913;51.992;9.228;2023-02-13T08:11:02;102543.00;;;6.64;100.00
21504;BME280;10913;51.992;9.228;2023-02-13T08:13:48;102538.72;;;6.66;100.00
21504;BME280;10913;51.992;9.228;2023-02-13T08:16:13;102548.25;;;6.64;100.00
21504;BME280;10913;51.992;9.228;2023-02-13T08:18:38;102553.59;;;6.66;100.00
21504;BME280;10913;51.992;9.228;2023-02-13T08:21:04;102545.69;;;6.66;100.00
21504;BME280;10913;51.992;9.228;2023-02-13T08:23:29;102555.38;;;6.67;100.00
21504;BME280;10913;51.992;9.228;2023-02-13T08:25:58;102548.47;;;6.69;100.00
21504;BME280;10913;51.992;9.228;2023-02-13T08:28:24;102544.19;;;6.71;100.00
21504;BME280;10913;51.992;9.228;2023-02-13T08:30:49;102544.47;;;6.77;100.00
21504;BME280;10913;51.992;9.228;2023-02-13T08:33:14;102544.41;;;6.75;100.00
21504;BME280;10913;51.992;9.228;2023-02-13T08:35:39;102547.03;;;6.75;100.00
21504;BME280;10913;51.992;9.228;2023-02-13T08:38:05;102543.38;;;6.72;100.00
21504;BME280;10913;51.992;9.228;2023-02-13T08:40:31;102542.47;;;6.71;100.00
21504;BME280;10913;51.992;9.228;2023-02-13T08:43:04;102541.56;;;6.71;100.00
21504;BME280;10913;51.992;9.228;2023-02-13T08:45:30;102541.56;;;6.71;100.00
21504;BME280;10913;51.992;9.228;2023-02-13T08:47:57;102541.72;;;6.74;100.00
21504;BME280;10913;51.992;9.228;2023-02-13T08:50:22;102542.75;;;6.77;100.00
21504;BME280;10913;51.992;9.228;2023-02-13T08:52:48;102548.91;;;6.78;100.00
21504;BME280;10913;51.992;9.228;2023-02-13T08:55:13;102552.59;;;6.83;100.00
21504;BME280;10913;51.992;9.228;2023-02-13T08:57:38;102547.44;;;6.84;100.00
21504;BME280;10913;51.992;9.228;2023-02-13T09:00:04;102542.09;;;6.83;100.00
21504;BME280;10913;51.992;9.228;2023-02-13T09:02:30;102540.31;;;6.82;100.00
21504;BME280;10913;51.992;9.228;2023-02-13T09:04:55;102540.31;;;6.82;100.00
21504;BME280;10913;51.992;9.228;2023-02-13T09:07:21;102546.53;;;6.84;100.00
21504;BME280;10913;51.992;9.228;2023-02-13T09:09:46;102537.06;;;6.87;100.00
21504;BME280;10913;51.992;9.228;2023-02-13T09:12:11;102539.91;;;6.92;100.00
21504;BME280;10913;51.992;9.228;2023-02-13T09:14:37;102539.22;;;6.96;100.00
21504;BME280;10913;51.992;9.228;2023-02-13T09:17:04;102538.44;;;6.99;100.00
21504;BME280;10913;51.992;9.228;2023-02-13T09:19:29;102535.81;;;6.99;100.00
21504;BME280;10913;51.992;9.228;2023-02-13T09:21:54;102533.22;;;7.00;100.00
21504;BME280;10913;51.992;9.228;2023-02-13T09:24:20;102537.78;;;7.04;100.00
21504;BME280;10913;51.992;9.228;2023-02-13T09:26:45;102532.69;;;7.07;100.00
21504;BME280;10913;51.992;9.228;2023-02-13T09:29:10;102535.38;;;7.09;100.00
21504;BME280;10913;51.992;9.228;2023-02-13T09:31:36;102537.16;;;7.10;100.00
21504;BME280;10913;51.992;9.228;2023-02-13T09:34:01;102543.47;;;7.13;100.00
21504;BME280;10913;51.992;9.228;2023-02-13T09:36:26;102535.38;;;7.09;100.00
21504;BME280;10913;51.992;9.228;2023-02-13T09:38:54;102545.13;;;7.11;100.00
21504;BME280;10913;51.992;9.228;2023-02-13T09:41:40;102542.50;;;7.11;100.00
21504;BME280;10913;51.992;9.228;2023-02-13T09:46:37;102555.72;;;7.13;100.00
21504;BME280;10913;51.992;9.228;2023-02-13T09:49:11;102550.53;;;7.14;100.00
21504;BME280;10913;51.992;9.228;2023-02-13T09:51:40;102552.25;;;7.14;100.00
21504;BME280;10913;51.992;9.228;2023-02-13T09:54:07;102552.09;;;7.11;100.00
21504;BME280;10913;51.992;9.228;2023-02-13T10:16:23;102548.88;;;7.16;100.00
21504;BME280;10913;51.992;9.228;2023-02-13T10:19:15;102557.72;;;7.18;100.00
21504;BME280;10913;51.992;9.228;2023-02-13T10:21:52;102548.09;;;7.19;100.00
21504;BME280;10913;51.992;9.228;2023-02-13T10:24:27;102549.09;;;7.22;100.00
21504;BME280;10913;51.992;9.228;2023-02-13T10:26:55;102547.50;;;7.26;100.00
21504;BME280;10913;51.992;9.228;2023-02-13T10:29:44;102546.03;;;7.33;100.00
21504;BME280;10913;51.992;9.228;2023-02-13T10:32:45;102547.97;;;7.37;100.00
21504;BME280;10913;51.992;9.228;2023-02-13T10:35:23;102549.88;;;7.41;100.00
21504;BME280;10913;51.992;9.228;2023-02-13T10:37:53;102553.59;;;7.46;100.00
21504;BME280;10913;51.992;9.228;2023-02-13T10:40:20;102556.50;;;7.52;100.00
21504;BME280;10913;51.992;9.228;2023-02-13T10:43:02;102554.00;;;7.55;100.00
21504;BME280;10913;51.992;9.228;2023-02-13T10:46:27;102555.81;;;7.56;100.00
21504;BME280;10913;51.992;9.228;2023-02-13T10:56:57;102554.25;;;7.61;100.00
21504;BME280;10913;51.992;9.228;2023-02-13T11:02:29;102542.72;;;7.57;100.00
21504;BME280;10913;51.992;9.228;2023-02-13T11:05:01;102548.63;;;7.52;100.00
21504;BME280;10913;51.992;9.228;2023-02-13T11:07:33;102539.00;;;7.52;100.00
21504;BME280;10913;51.992;9.228;2023-02-13T11:10:03;102538.09;;;7.52;100.00
21504;BME280;10913;51.992;9.228;2023-02-13T11:12:31;102534.78;;;7.56;100.00
21504;BME280;10913;51.992;9.228;2023-02-13T11:15:00;102531.31;;;7.57;100.00
21504;BME280;10913;51.992;9.228;2023-02-13T11:17:28;102532.38;;;7.62;100.00
21504;BME280;10913;51.992;9.228;2023-02-13T11:19:57;102527.03;;;7.60;100.00
21504;BME280;10913;51.992;9.228;2023-02-13T11:22:32;102531.53;;;7.63;100.00
21504;BME280;10913;51.992;9.228;2023-02-13T11:25:21;102533.47;;;7.67;100.00
21504;BME280;10913;51.992;9.228;2023-02-13T11:27:49;102528.31;;;7.70;100.00
21504;BME280;10913;51.992;9.228;2023-02-13T11:30:37;102525.84;;;7.73;100.00
21504;BME280;10913;51.992;9.228;2023-02-13T11:35:40;102523.31;;;7.76;100.00
21504;BME280;10913;51.992;9.228;2023-02-13T11:40:35;102519.03;;;7.78;100.00
21504;BME280;10913;51.992;9.228;2023-02-13T11:43:00;102514.69;;;7.80;100.00
21504;BME280;10913;51.992;9.228;2023-02-13T11:45:26;102524.44;;;7.83;100.00
21504;BME280;10913;51.992;9.228;2023-02-13T11:47:54;102504.41;;;7.86;100.00
21504;BME280;10913;51.992;9.228;2023-02-13T11:50:34;102513.41;;;7.91;100.00
21504;BME280;10913;51.992;9.228;2023-02-13T11:53:05;102508.97;;;7.90;100.00
21504;BME280;10913;51.992;9.228;2023-02-13T11:55:36;102506.34;;;7.90;100.00
21504;BME280;10913;51.992;9.228;2023-02-13T12:00:40;102503.91;;;7.95;100.00
21504;BME280;10913;51.992;9.228;2023-02-13T12:06:14;102496.16;;;8.00;100.00
21504;BME280;10913;51.992;9.228;2023-02-13T12:08:43;102494.63;;;8.05;100.00
21504;BME280;10913;51.992;9.228;2023-02-13T12:11:46;102491.13;;;8.06;100.00
21504;BME280;10913;51.992;9.228;2023-02-13T12:14:19;102483.31;;;8.07;100.00
21504;BME280;10913;51.992;9.228;2023-02-13T12:17:01;102496.53;;;8.09;100.00
21504;BME280;10913;51.992;9.228;2023-02-13T12:19:34;102485.16;;;8.10;100.00
21504;BME280;10913;51.992;9.228;2023-02-13T12:25:18;102477.56;;;8.17;100.00
21504;BME280;10913;51.992;9.228;2023-02-13T12:28:12;102475.09;;;8.22;100.00
21504;BME280;10913;51.992;9.228;2023-02-13T12:36:29;102460.53;;;8.32;100.00
21504;BME280;10913;51.992;9.228;2023-02-13T13:03:32;102433.94;;;8.72;100.00
21504;BME280;10913;51.992;9.228;2023-02-13T13:22:33;102431.66;;;8.82;100.00
21504;BME280;10913;51.992;9.228;2023-02-13T13:25:27;102429.19;;;8.87;100.00
21504;BME280;10913;51.992;9.228;2023-02-13T13:28:09;102423.91;;;8.87;100.00
21504;BME280;10913;51.992;9.228;2023-02-13T13:30:36;102416.97;;;8.89;100.00
21504;BME280;10913;51.992;9.228;2023-02-13T13:35:38;102414.44;;;8.92;100.00
21504;BME280;10913;51.992;9.228;2023-02-13T13:46:20;102398.28;;;9.08;100.00
21504;BME280;10913;51.992;9.228;2023-02-13T13:48:59;102397.53;;;9.12;100.00
21504;BME280;10913;51.992;9.228;2023-02-13T13:51:31;102398.38;;;9.11;98.90
21504;BME280;10913;51.992;9.228;2023-02-13T13:56:26;102388.41;;;9.03;98.01
21504;BME280;10913;51.992;9.228;2023-02-13T14:07:47;102384.94;;;9.04;98.45
21504;BME280;10913;51.992;9.228;2023-02-13T14:12:49;102384.34;;;9.12;99.45
21504;BME280;10913;51.992;9.228;2023-02-13T14:17:59;102379.09;;;9.12;97.54
21504;BME280;10913;51.992;9.228;2023-02-13T14:25:43;102378.88;;;9.06;98.94
21504;BME280;10913;51.992;9.228;2023-02-13T14:28:20;102370.00;;;9.04;98.41
21504;BME280;10913;51.992;9.228;2023-02-13T14:30:48;102378.88;;;9.06;98.78
21504;BME280;10913;51.992;9.228;2023-02-13T14:33:24;102367.53;;;9.09;98.79
21504;BME280;10913;51.992;9.228;2023-02-13T14:36:15;102361.34;;;9.08;98.52
21504;BME280;10913;51.992;9.228;2023-02-13T14:38:42;102351.59;;;9.06;98.49
21504;BME280;10913;51.992;9.228;2023-02-13T14:44:36;102361.41;;;9.10;99.11
21504;BME280;10913;51.992;9.228;2023-02-13T14:47:30;102362.47;;;9.15;99.16
21504;BME280;10913;51.992;9.228;2023-02-13T14:49:58;102362.50;;;9.16;99.02
21504;BME280;10913;51.992;9.228;2023-02-13T14:52:30;102365.22;;;9.19;99.43
21504;BME280;10913;51.992;9.228;2023-02-13T14:57:43;102359.47;;;9.31;99.38
21504;BME280;10913;51.992;9.228;2023-02-13T15:02:45;102357.72;;;9.31;99.37
21504;BME280;10913;51.992;9.228;2023-02-13T15:05:13;102363.94;;;9.33;99.37
21504;BME280;10913;51.992;9.228;2023-02-13T15:07:45;102353.50;;;9.37;99.52
21504;BME280;10913;51.992;9.228;2023-02-13T15:12:59;102351.69;;;9.36;99.08
21504;BME280;10913;51.992;9.228;2023-02-13T15:15:29;102349.91;;;9.35;98.12
21504;BME280;10913;51.992;9.228;2023-02-13T15:17:59;102341.06;;;9.32;98.26
21504;BME280;10913;51.992;9.228;2023-02-13T15:20:27;102337.41;;;9.29;98.51
21504;BME280;10913;51.992;9.228;2023-02-13T15:25:39;102342.44;;;9.21;98.78
21504;BME280;10913;51.992;9.228;2023-02-13T15:28:06;102341.59;;;9.22;99.50
21504;BME280;10913;51.992;9.228;2023-02-13T15:30:37;102344.34;;;9.25;99.72
21504;BME280;10913;51.992;9.228;2023-02-13T15:33:17;102339.94;;;9.26;99.52
21504;BME280;10913;51.992;9.228;2023-02-13T15:35:43;102338.94;;;9.22;99.42
21504;BME280;10913;51.992;9.228;2023-02-13T15:40:55;102336.94;;;9.14;99.66
21504;BME280;10913;51.992;9.228;2023-02-13T15:43:27;102340.38;;;9.11;100.00
21504;BME280;10913;51.992;9.228;2023-02-13T15:45:59;102335.84;;;9.07;100.00
21504;BME280;10913;51.992;9.228;2023-02-13T15:48:27;102336.56;;;9.03;100.00
21504;BME280;10913;51.992;9.228;2023-02-13T15:50:54;102332.91;;;8.98;100.00
21504;BME280;10913;51.992;9.228;2023-02-13T15:53:20;102333.56;;;8.91;100.00
21504;BME280;10913;51.992;9.228;2023-02-13T15:56:11;102336.88;;;8.85;100.00
21504;BME280;10913;51.992;9.228;2023-02-13T15:58:38;102332.41;;;8.83;100.00
21504;BME280;10913;51.992;9.228;2023-02-13T16:01:06;102333.94;;;8.76;100.00
21504;BME280;10913;51.992;9.228;2023-02-13T16:03:33;102332.00;;;8.71;100.00
21504;BME280;10913;51.992;9.228;2023-02-13T16:05:59;102330.94;;;8.66;100.00
21504;BME280;10913;51.992;9.228;2023-02-13T16:08:29;102332.63;;;8.63;100.00
21504;BME280;10913;51.992;9.228;2023-02-13T16:19:38;102340.56;;;8.38;100.00
21504;BME280;10913;51.992;9.228;2023-02-13T16:22:44;102344.66;;;8.32;100.00
21504;BME280;10913;51.992;9.228;2023-02-13T16:25:17;102353.22;;;8.26;100.00
21504;BME280;10913;51.992;9.228;2023-02-13T16:27:57;102351.31;;;8.22;100.00
21504;BME280;10913;51.992;9.228;2023-02-13T16:35:35;102350.00;;;8.09;100.00
21504;BME280;10913;51.992;9.228;2023-02-13T16:38:02;102358.69;;;8.07;100.00